Time;durP1;ratioP1;P1;durP2;ratioP2;P2;SDS_P1;SDS_P2;PMS_P1;PMS_P2;Temp;Humidity;BMP_temperature;BMP_pressure;BME280_temperature;BME280_humidity;BME280_pressure;Samples;Min_cycle;Max_cycle;Signal;HPM_P1;HPM_P2
2023/10/24 00:02:10;;;;;;;3.72;2.05;;;22.90;60.90;;;;;;6104971;23;86090;-92
2023/10/24 00:04:36;;;;;;;2.67;1.90;;;22.90;60.90;;;;;;6102986;23;87645;-92
2023/10/24 00:07:02;;;;;;;2.47;1.67;;;22.80;61.10;;;;;;6101947;23;88949;-93
2023/10/24 00:09:27;;;;;;;2.78;1.90;;;22.80;61.10;;;;;;6102038;23;85618;-92
2023/10/24 00:11:53;;;;;;;3.15;1.52;;;22.80;61.20;;;;;;6087957;23;86594;-90
2023/10/24 00:14:19;;;;;;;2.97;1.67;;;22.80;60.80;;;;;;6103861;23;87291;-92
2023/10/24 00:16:44;;;;;;;2.63;1.80;;;22.80;60.90;;;;;;6127437;23;89312;-92
2023/10/24 00:19:12;;;;;;;2.67;1.65;;;22.80;61.20;;;;;;6102909;23;86349;-93
2023/10/24 00:21:38;;;;;;;3.13;1.45;;;22.80;60.90;;;;;;6101982;23;86431;-92
2023/10/24 00:24:11;;;;;;;2.55;1.65;;;22.80;61.10;;;;;;6128577;23;87602;-92
2023/10/24 00:26:36;;;;;;;2.75;1.45;;;22.80;61.20;;;;;;6098853;23;87197;-90
2023/10/24 00:29:03;;;;;;;3.22;1.58;;;22.80;61.00;;;;;;6102817;23;90847;-91
2023/10/24 00:31:28;;;;;;;3.40;2.25;;;22.80;61.00;;;;;;6127064;23;86738;-94
2023/10/24 00:33:54;;;;;;;3.95;1.50;;;22.70;61.00;;;;;;6101796;23;87080;-92
2023/10/24 00:36:21;;;;;;;4.60;1.73;;;22.70;60.90;;;;;;6124696;23;89726;-93
2023/10/24 00:38:46;;;;;;;4.15;2.03;;;22.70;61.10;;;;;;6097321;23;85693;-92
2023/10/24 00:41:12;;;;;;;3.33;1.90;;;22.70;60.90;;;;;;6100128;23;86299;-92
2023/10/24 00:43:38;;;;;;;2.30;1.83;;;22.70;61.10;;;;;;6126146;23;87245;-93
2023/10/24 00:46:04;;;;;;;4.05;1.63;;;22.60;61.10;;;;;;6086024;23;86221;-93
2023/10/24 00:48:30;;;;;;;2.33;1.50;;;22.60;61.10;;;;;;6127049;23;85990;-94
2023/10/24 00:50:56;;;;;;;3.10;1.67;;;22.60;61.10;;;;;;6124834;23;86054;-92
2023/10/24 00:53:22;;;;;;;2.15;1.48;;;22.60;61.10;;;;;;6129070;23;86227;-92
2023/10/24 00:55:49;;;;;;;3.38;1.80;;;22.60;61.00;;;;;;6126562;23;88978;-93
2023/10/24 00:58:15;;;;;;;2.78;1.70;;;22.60;61.10;;;;;;6101732;23;86397;-94
2023/10/24 01:00:42;;;;;;;4.72;1.83;;;22.60;61.20;;;;;;6102605;23;85935;-93
2023/10/24 01:03:08;;;;;;;1.65;1.30;;;22.60;61.10;;;;;;6104738;23;87302;-94
2023/10/24 01:05:35;;;;;;;2.03;1.50;;;22.60;61.30;;;;;;6131681;23;88425;-92
2023/10/24 01:08:01;;;;;;;2.35;1.60;;;22.60;61.20;;;;;;6105363;23;85916;-94
2023/10/24 01:10:27;;;;;;;2.95;1.52;;;22.60;61.30;;;;;;6107489;23;85608;-92
2023/10/24 01:12:53;;;;;;;3.10;1.60;;;22.60;61.20;;;;;;6107145;23;88661;-92
2023/10/24 01:15:19;;;;;;;1.85;1.33;;;22.60;61.00;;;;;;6134807;23;88619;-93
2023/10/24 01:17:49;;;;;;;2.63;1.58;;;22.50;61.20;;;;;;6107423;23;85700;-93
2023/10/24 01:20:15;;;;;;;4.07;1.70;;;22.50;61.30;;;;;;6110548;23;86330;-92
2023/10/24 01:22:42;;;;;;;3.10;1.60;;;22.50;61.80;;;;;;6108234;23;88994;-92
2023/10/24 01:25:15;;;;;;;3.78;1.58;;;22.50;61.30;;;;;;6107326;23;86654;-92
2023/10/24 01:27:43;;;;;;;3.90;1.80;;;22.50;61.30;;;;;;6120521;23;85970;-92
2023/10/24 01:30:13;;;;;;;3.42;1.70;;;22.50;61.40;;;;;;6108822;23;86154;-92
2023/10/24 01:32:42;;;;;;;3.08;1.70;;;22.50;61.20;;;;;;6105774;23;89228;-91
2023/10/24 01:35:09;;;;;;;3.72;1.80;;;22.50;61.30;;;;;;6106317;23;89747;-92
2023/10/24 01:37:35;;;;;;;2.05;1.38;;;22.40;61.30;;;;;;6130852;23;85721;-92
2023/10/24 01:40:03;;;;;;;1.75;1.27;;;22.40;61.20;;;;;;6106066;23;86297;-91
2023/10/24 01:42:28;;;;;;;1.92;1.45;;;22.40;61.40;;;;;;6130214;23;88683;-92
2023/10/24 01:44:54;;;;;;;1.70;1.45;;;22.40;61.40;;;;;;6105189;23;87993;-93
2023/10/24 01:47:20;;;;;;;2.22;1.48;;;22.40;61.30;;;;;;6105236;23;86045;-93
2023/10/24 01:49:45;;;;;;;2.60;1.48;;;22.40;61.00;;;;;;6130338;23;86006;-90
2023/10/24 01:52:11;;;;;;;1.90;1.45;;;22.40;61.30;;;;;;6104901;23;88268;-94
2023/10/24 01:54:37;;;;;;;2.83;1.50;;;22.40;61.30;;;;;;6130701;23;86726;-91
2023/10/24 01:57:03;;;;;;;2.05;1.40;;;22.40;61.50;;;;;;6129656;23;86929;-93
2023/10/24 01:59:28;;;;;;;2.10;1.40;;;22.40;61.40;;;;;;6105981;23;85863;-91
2023/10/24 02:01:54;;;;;;;2.45;1.45;;;22.40;61.30;;;;;;6130714;23;87845;-92
2023/10/24 02:04:20;;;;;;;2.65;1.50;;;22.40;61.40;;;;;;6104729;23;89454;-92
2023/10/24 02:06:45;;;;;;;1.80;1.45;;;22.40;61.60;;;;;;6131707;23;86077;-91
2023/10/24 02:09:11;;;;;;;3.00;1.42;;;22.40;61.20;;;;;;6105606;23;85756;-92
2023/10/24 02:11:45;;;;;;;3.28;1.65;;;22.30;61.20;;;;;;6106910;23;90063;-92
2023/10/24 02:14:11;;;;;;;1.75;1.30;;;22.40;61.20;;;;;;6104746;23;91764;-92
2023/10/24 02:16:37;;;;;;;2.13;1.38;;;22.30;61.20;;;;;;6104820;23;86146;-92
2023/10/24 02:19:03;;;;;;;1.90;1.40;;;22.30;61.10;;;;;;6105143;23;85767;-94
2023/10/24 02:21:31;;;;;;;2.47;1.70;;;22.30;61.20;;;;;;6105349;23;88241;-92
2023/10/24 02:23:57;;;;;;;2.05;1.45;;;22.40;61.30;;;;;;6129390;23;87143;-90
2023/10/24 02:26:24;;;;;;;1.45;1.30;;;22.30;61.20;;;;;;6106489;23;85627;-91
2023/10/24 02:28:49;;;;;;;1.90;1.40;;;22.30;61.20;;;;;;6131107;23;86148;-92
2023/10/24 02:31:18;;;;;;;3.35;1.73;;;22.30;61.10;;;;;;6104748;23;89056;-91
2023/10/24 02:33:43;;;;;;;1.63;0.93;;;22.30;61.10;;;;;;6128166;23;87387;-92
2023/10/24 02:36:14;;;;;;;1.63;1.20;;;22.30;61.10;;;;;;6103571;23;86062;-94
2023/10/24 02:38:39;;;;;;;2.92;1.27;;;22.30;61.20;;;;;;6104596;23;85941;-92
2023/10/24 02:41:08;;;;;;;2.20;1.50;;;22.30;61.40;;;;;;6105508;23;87681;-93
2023/10/24 02:43:34;;;;;;;1.83;1.40;;;22.30;61.00;;;;;;6098893;23;88077;-92
2023/10/24 02:46:07;;;;;;;1.92;1.30;;;22.20;61.00;;;;;;6103998;23;85943;-91
2023/10/24 02:48:33;;;;;;;2.13;1.33;;;22.30;61.10;;;;;;6104898;23;85887;-91
2023/10/24 02:51:00;;;;;;;1.90;1.33;;;22.20;61.10;;;;;;6106169;23;88747;-93
2023/10/24 02:53:26;;;;;;;2.33;1.40;;;22.20;61.10;;;;;;6108251;23;88252;-93
2023/10/24 02:55:52;;;;;;;1.40;1.10;;;22.20;61.10;;;;;;6106976;23;86410;-92
2023/10/24 02:58:18;;;;;;;2.33;1.30;;;22.20;60.80;;;;;;6133351;23;86145;-92
2023/10/24 03:00:45;;;;;;;2.38;1.30;;;22.20;61.20;;;;;;6107776;23;89052;-92
2023/10/24 03:03:11;;;;;;;3.22;1.65;;;22.20;61.20;;;;;;6107823;23;86878;-93
2023/10/24 03:05:37;;;;;;;1.83;1.30;;;22.20;61.30;;;;;;6108459;23;85638;-93
2023/10/24 03:08:04;;;;;;;2.15;1.50;;;22.20;61.10;;;;;;6103168;23;87745;-90
2023/10/24 03:10:41;;;;;;;1.88;1.45;;;22.20;61.10;;;;;;6107068;23;88007;-92
2023/10/24 03:13:07;;;;;;;2.25;1.42;;;22.20;61.20;;;;;;6106849;23;89092;-94
2023/10/24 03:15:39;;;;;;;1.90;1.42;;;22.20;61.10;;;;;;6090465;23;85592;-91
2023/10/24 03:18:07;;;;;;;2.78;1.50;;;22.20;61.20;;;;;;6106680;23;86055;-93
2023/10/24 03:20:33;;;;;;;1.65;1.30;;;22.20;61.00;;;;;;6106862;23;87706;-92
2023/10/24 03:22:59;;;;;;;2.42;1.58;;;22.20;61.10;;;;;;6091346;23;88331;-93
2023/10/24 03:25:25;;;;;;;2.42;1.30;;;22.20;61.30;;;;;;6074783;23;86043;-91
2023/10/24 03:27:53;;;;;;;1.45;1.08;;;22.20;61.10;;;;;;6105192;23;85995;-91
2023/10/24 03:30:19;;;;;;;2.40;1.45;;;22.20;61.20;;;;;;6130741;23;87917;-92
2023/10/24 03:32:52;;;;;;;2.55;1.40;;;22.20;61.20;;;;;;6104681;23;90006;-93
2023/10/24 03:35:20;;;;;;;3.03;1.60;;;22.20;61.20;;;;;;6107873;23;87115;-92
2023/10/24 03:37:46;;;;;;;1.98;1.40;;;22.10;60.80;;;;;;6135344;23;85504;-94
2023/10/24 03:40:11;;;;;;;1.65;1.20;;;22.20;61.00;;;;;;6122194;22;88007;-94
2023/10/24 03:42:37;;;;;;;2.13;1.13;;;22.10;60.90;;;;;;6122448;22;88957;-93
2023/10/24 03:45:15;;;;;;;1.90;1.27;;;22.10;60.90;;;;;;6149333;22;85248;-94
2023/10/24 03:47:41;;;;;;;2.00;1.00;;;22.10;61.10;;;;;;6122778;22;86205;-94
2023/10/24 03:50:07;;;;;;;1.60;1.10;;;22.10;60.90;;;;;;6123200;22;90826;-94
2023/10/24 03:52:35;;;;;;;2.80;1.20;;;22.20;60.90;;;;;;6123157;22;87147;-94
2023/10/24 03:55:06;;;;;;;2.00;1.27;;;22.10;60.80;;;;;;6123801;22;85291;-94
2023/10/24 03:57:31;;;;;;;1.60;1.02;;;22.10;60.90;;;;;;6110310;22;85267;-93
2023/10/24 03:59:57;;;;;;;1.30;1.20;;;22.10;60.80;;;;;;6118803;22;87947;-91
2023/10/24 04:02:23;;;;;;;2.28;1.13;;;22.10;61.10;;;;;;6106188;23;86001;-92
2023/10/24 04:05:33;;;;;;;2.13;1.35;;;22.10;60.90;;;;;;6106815;23;85696;-91
2023/10/24 04:08:04;;;;;;;1.60;1.05;;;22.10;61.00;;;;;;6104397;23;85840;-92
2023/10/24 04:10:34;;;;;;;1.70;1.20;;;22.10;60.90;;;;;;6081041;23;90336;-92
2023/10/24 04:13:00;;;;;;;1.60;1.08;;;22.10;60.90;;;;;;6105991;23;86192;-92
2023/10/24 04:15:25;;;;;;;2.17;1.33;;;22.10;61.10;;;;;;6104107;23;85718;-92
2023/10/24 04:17:51;;;;;;;1.23;1.02;;;22.10;60.80;;;;;;6104346;23;85841;-93
2023/10/24 04:20:17;;;;;;;2.72;1.20;;;22.10;61.00;;;;;;6131844;23;87857;-92
2023/10/24 04:22:49;;;;;;;1.83;0.90;;;22.10;60.90;;;;;;6105240;23;88067;-92
2023/10/24 04:25:15;;;;;;;1.55;1.13;;;22.10;61.00;;;;;;6104590;23;86087;-92
2023/10/24 04:27:41;;;;;;;1.85;1.35;;;22.00;60.70;;;;;;6106739;23;86186;-92
2023/10/24 04:30:08;;;;;;;2.20;1.27;;;22.10;60.90;;;;;;6104670;23;88600;-93
2023/10/24 04:32:34;;;;;;;2.28;1.40;;;22.00;61.70;;;;;;6131723;23;85958;-92
2023/10/24 04:35:00;;;;;;;1.35;1.05;;;22.10;61.10;;;;;;6131914;23;86113;-92
2023/10/24 04:37:26;;;;;;;2.90;1.20;;;22.10;61.20;;;;;;6128966;23;86036;-92
2023/10/24 04:39:53;;;;;;;1.58;1.00;;;22.10;61.00;;;;;;6128964;23;88394;-92
2023/10/24 04:42:24;;;;;;;1.65;1.20;;;22.00;61.10;;;;;;6104555;23;87239;-91
2023/10/24 04:44:53;;;;;;;1.27;1.00;;;22.00;60.90;;;;;;6103373;23;86314;-93
2023/10/24 04:47:19;;;;;;;1.27;1.17;;;22.00;60.90;;;;;;6105263;23;85795;-92
2023/10/24 04:49:45;;;;;;;1.92;1.30;;;22.00;61.00;;;;;;6103684;23;88981;-92
2023/10/24 04:52:12;;;;;;;4.30;1.75;;;22.00;60.80;;;;;;6103643;23;88105;-92
2023/10/24 04:54:38;;;;;;;2.28;1.23;;;22.00;60.80;;;;;;6104718;23;85906;-93
2023/10/24 04:57:07;;;;;;;1.27;1.00;;;22.00;61.10;;;;;;6104035;23;85807;-92
2023/10/24 04:59:33;;;;;;;1.67;1.08;;;22.00;60.80;;;;;;6129082;23;87380;-92
2023/10/24 05:01:59;;;;;;;1.83;1.23;;;22.00;60.80;;;;;;6103554;23;88787;-91
2023/10/24 05:04:25;;;;;;;1.40;1.10;;;22.00;60.80;;;;;;6129727;23;85875;-93
2023/10/24 05:07:10;;;;;;;1.55;0.93;;;22.00;60.90;;;;;;6103508;23;85939;-92
2023/10/24 05:09:36;;;;;;;1.60;1.10;;;22.00;60.90;;;;;;6103412;23;88214;-92
2023/10/24 05:12:03;;;;;;;1.58;1.27;;;22.00;60.90;;;;;;6127513;23;90430;-92
2023/10/24 05:14:28;;;;;;;1.83;1.30;;;22.00;60.80;;;;;;6128979;23;86304;-92
2023/10/24 05:16:54;;;;;;;1.20;1.10;;;22.00;60.70;;;;;;6088961;23;85572;-92
2023/10/24 05:19:27;;;;;;;2.13;1.20;;;22.00;60.60;;;;;;6104601;23;88653;-91
2023/10/24 05:21:53;;;;;;;2.15;1.27;;;21.90;60.70;;;;;;6128394;23;86264;-92
2023/10/24 05:24:19;;;;;;;1.20;1.05;;;21.90;60.60;;;;;;6128074;23;86816;-93
2023/10/24 05:26:47;;;;;;;1.42;1.25;;;21.90;60.80;;;;;;6102387;23;86124;-91
2023/10/24 05:29:12;;;;;;;1.38;1.08;;;22.00;60.80;;;;;;6128392;23;86242;-91
2023/10/24 05:31:38;;;;;;;1.20;1.00;;;22.00;61.10;;;;;;6103426;23;88351;-93
2023/10/24 05:34:04;;;;;;;1.10;0.85;;;21.90;60.70;;;;;;6127535;23;86569;-92
2023/10/24 05:36:29;;;;;;;1.92;1.10;;;21.90;60.70;;;;;;6129449;23;85717;-93
2023/10/24 05:38:55;;;;;;;1.58;1.15;;;22.00;60.70;;;;;;6129129;23;86999;-92
2023/10/24 05:41:23;;;;;;;2.33;1.30;;;21.90;60.60;;;;;;6102070;23;87588;-90
2023/10/24 05:43:49;;;;;;;2.38;1.25;;;21.90;60.60;;;;;;6102960;23;86178;-93
2023/10/24 05:46:15;;;;;;;3.10;1.05;;;21.90;60.60;;;;;;6102660;23;85621;-92
2023/10/24 05:48:43;;;;;;;1.83;1.20;;;21.90;60.50;;;;;;6103869;23;87527;-92
2023/10/24 05:51:12;;;;;;;1.47;1.10;;;21.90;60.70;;;;;;6125880;23;87032;-93
2023/10/24 05:53:37;;;;;;;1.40;1.10;;;21.90;60.50;;;;;;6101814;23;86157;-91
2023/10/24 05:56:03;;;;;;;1.35;1.20;;;21.90;60.70;;;;;;6097011;23;85745;-91
2023/10/24 05:58:29;;;;;;;1.88;1.02;;;21.90;60.50;;;;;;6103937;23;88158;-92
2023/10/24 06:00:55;;;;;;;1.67;1.00;;;21.90;60.70;;;;;;6128783;23;86612;-92
2023/10/24 06:03:26;;;;;;;1.45;1.10;;;21.90;60.70;;;;;;6129897;23;85980;-93
2023/10/24 06:05:52;;;;;;;1.10;0.98;;;21.90;60.80;;;;;;6102936;23;85790;-92
2023/10/24 06:08:18;;;;;;;1.83;1.30;;;21.90;60.40;;;;;;6102883;23;88013;-92
2023/10/24 06:10:53;;;;;;;2.00;1.08;;;21.90;60.60;;;;;;6129412;23;87528;-93
2023/10/24 06:13:18;;;;;;;1.52;1.20;;;21.90;60.70;;;;;;6091430;23;86357;-94
2023/10/24 06:15:44;;;;;;;2.55;1.00;;;21.90;60.70;;;;;;6105389;23;86071;-94
2023/10/24 06:18:10;;;;;;;2.58;1.17;;;21.90;60.80;;;;;;6087833;23;88218;-92
2023/10/24 06:20:38;;;;;;;1.67;1.38;;;21.90;60.90;;;;;;6100851;23;89664;-90
2023/10/24 06:23:05;;;;;;;2.03;1.50;;;21.90;61.20;;;;;;6093222;23;89045;-90
2023/10/24 06:25:41;;;;;;;2.42;1.17;;;21.90;61.50;;;;;;6124277;23;86434;-93
2023/10/24 06:28:07;;;;;;;2.40;1.33;;;21.90;61.00;;;;;;6109935;23;87781;-92
2023/10/24 06:30:42;;;;;;;1.40;1.30;;;21.90;61.60;;;;;;6106890;23;88077;-92
2023/10/24 06:33:08;;;;;;;2.13;1.42;;;21.90;62.00;;;;;;6128477;23;86174;-91
2023/10/24 06:35:34;;;;;;;1.33;1.23;;;21.90;62.50;;;;;;6100113;23;85802;-92
2023/10/24 06:38:00;;;;;;;1.42;1.05;;;21.90;62.50;;;;;;6125093;23;87865;-93
2023/10/24 06:40:28;;;;;;;3.53;1.20;;;21.90;62.30;;;;;;6100974;23;89184;-91
2023/10/24 06:42:54;;;;;;;1.87;1.23;;;21.90;62.40;;;;;;6094029;23;86312;-92
2023/10/24 06:45:19;;;;;;;1.50;1.20;;;21.90;62.50;;;;;;6101747;23;86284;-92
2023/10/24 06:47:45;;;;;;;1.30;1.17;;;21.90;62.60;;;;;;6126175;23;89089;-93
2023/10/24 06:50:11;;;;;;;1.55;1.05;;;22.00;63.00;;;;;;6103503;23;87361;-92
2023/10/24 06:52:38;;;;;;;2.28;1.42;;;22.00;62.90;;;;;;6101819;23;86385;-92
2023/10/24 06:55:04;;;;;;;3.17;1.38;;;22.00;63.00;;;;;;6101781;23;86309;-93
2023/10/24 06:57:32;;;;;;;1.98;1.00;;;22.00;63.20;;;;;;6101512;23;88566;-91
2023/10/24 06:59:58;;;;;;;4.47;0.98;;;22.00;63.00;;;;;;6126446;23;86286;-93
2023/10/24 07:02:27;;;;;;;3.85;1.38;;;22.00;61.70;;;;;;6127866;23;86077;-90
2023/10/24 07:04:53;;;;;;;2.47;0.90;;;22.00;62.10;;;;;;6106052;23;85709;-93
2023/10/24 07:07:19;;;;;;;3.97;1.27;;;22.00;62.40;;;;;;6108039;23;88565;-93
2023/10/24 07:09:44;;;;;;;2.53;1.15;;;22.00;62.70;;;;;;6106275;23;88307;-92
2023/10/24 07:12:10;;;;;;;1.23;1.08;;;22.00;62.60;;;;;;6126926;23;87436;-93
2023/10/24 07:14:36;;;;;;;1.65;1.25;;;22.00;62.60;;;;;;6128022;23;86355;-89
2023/10/24 07:17:02;;;;;;;1.38;1.27;;;22.00;62.80;;;;;;6103722;23;87781;-90
2023/10/24 07:19:28;;;;;;;1.95;0.95;;;22.00;62.10;;;;;;6100048;23;86566;-90
2023/10/24 07:21:53;;;;;;;2.90;1.10;;;22.00;62.90;;;;;;6099924;23;86470;-90
2023/10/24 07:24:19;;;;;;;1.38;1.10;;;22.10;62.00;;;;;;6100176;23;86151;-89
2023/10/24 07:26:45;;;;;;;2.03;1.10;;;22.10;62.00;;;;;;6101672;23;90894;-89
2023/10/24 07:29:10;;;;;;;3.35;1.05;;;22.10;62.30;;;;;;6126947;23;89521;-88
2023/10/24 07:31:36;;;;;;;3.42;1.10;;;22.10;62.40;;;;;;6124937;23;86280;-91
2023/10/24 07:34:03;;;;;;;2.30;1.20;;;22.20;62.30;;;;;;6097589;23;85805;-89
2023/10/24 07:36:31;;;;;;;5.18;1.10;;;22.20;62.40;;;;;;6098084;23;89506;-94
2023/10/24 07:39:00;;;;;;;4.20;1.35;;;22.20;62.40;;;;;;6098350;23;86744;-92
2023/10/24 07:41:26;;;;;;;2.45;1.30;;;22.20;62.70;;;;;;6102973;23;86005;-89
2023/10/24 07:43:52;;;;;;;5.82;1.38;;;22.20;62.70;;;;;;6102897;23;86370;-87
2023/10/24 07:46:19;;;;;;;5.60;1.80;;;22.20;62.80;;;;;;6102043;23;89637;-92
2023/10/24 07:48:45;;;;;;;8.05;1.80;;;22.20;62.60;;;;;;6104095;23;87073;-93
2023/10/24 07:51:12;;;;;;;8.60;1.33;;;22.30;62.70;;;;;;6099526;23;86332;-93
2023/10/24 07:53:38;;;;;;;4.90;1.30;;;22.30;62.50;;;;;;6098456;23;85790;-94
2023/10/24 07:56:07;;;;;;;2.55;1.33;;;22.30;62.60;;;;;;6075641;23;88934;-92
2023/10/24 07:58:36;;;;;;;5.50;1.60;;;22.30;62.50;;;;;;6121873;23;88447;-94
2023/10/24 08:01:04;;;;;;;3.37;1.30;;;22.30;62.30;;;;;;6096869;23;85774;-93
2023/10/24 08:03:30;;;;;;;7.47;2.17;;;22.30;62.30;;;;;;6095680;23;86135;-92
2023/10/24 08:05:55;;;;;;;1.65;1.30;;;22.30;62.50;;;;;;6082753;23;89790;-92
2023/10/24 08:08:23;;;;;;;3.67;1.40;;;22.30;62.50;;;;;;6098748;23;88471;-92
2023/10/24 08:10:49;;;;;;;5.35;1.50;;;22.40;62.90;;;;;;6124304;23;85814;-91
2023/10/24 08:13:15;;;;;;;5.50;1.75;;;22.40;62.90;;;;;;6118657;22;85780;-93
2023/10/24 08:16:00;;;;;;;4.30;1.42;;;22.40;62.70;;;;;;6098329;23;87111;-93
2023/10/24 08:18:26;;;;;;;4.53;1.60;;;22.40;62.90;;;;;;6098842;23;88573;-92
2023/10/24 08:20:53;;;;;;;2.47;1.30;;;22.40;62.80;;;;;;6100976;23;86414;-93
2023/10/24 08:23:19;;;;;;;5.65;1.20;;;22.40;62.80;;;;;;6103079;23;85445;-93
2023/10/24 08:25:47;;;;;;;2.33;1.27;;;22.50;62.70;;;;;;6101638;23;88445;-93
2023/10/24 08:28:16;;;;;;;6.18;1.90;;;22.50;62.70;;;;;;6101815;23;88449;-93
2023/10/24 08:30:41;;;;;;;3.63;1.70;;;22.50;62.80;;;;;;6099819;23;86029;-93
2023/10/24 08:33:07;;;;;;;3.47;1.63;;;22.50;62.60;;;;;;6123849;23;85893;-94
2023/10/24 08:35:33;;;;;;;4.00;1.67;;;22.60;62.70;;;;;;6103489;23;88388;-94
2023/10/24 08:37:59;;;;;;;5.85;2.00;;;22.60;62.70;;;;;;6071890;23;88734;-94
2023/10/24 08:40:27;;;;;;;4.47;1.10;;;22.60;62.60;;;;;;6100675;23;85674;-93
2023/10/24 08:42:53;;;;;;;3.38;1.02;;;22.60;62.60;;;;;;6101822;23;86496;-93
2023/10/24 08:45:19;;;;;;;2.22;1.20;;;22.60;62.80;;;;;;6105124;23;89484;-93
2023/10/24 08:47:47;;;;;;;13.88;2.10;;;22.60;62.30;;;;;;6081261;23;86997;-94
2023/10/24 08:50:13;;;;;;;5.40;1.40;;;22.70;62.20;;;;;;6067413;23;86095;-93
2023/10/24 08:52:39;;;;;;;4.07;1.63;;;22.70;61.80;;;;;;6089411;23;86316;-94
2023/10/24 08:55:07;;;;;;;5.57;1.50;;;22.70;62.40;;;;;;6066128;23;87739;-92
2023/10/24 08:57:43;;;;;;;4.13;1.63;;;22.80;62.20;;;;;;6053522;23;89055;-93
2023/10/24 09:00:16;;;;;;;4.57;1.60;;;22.70;62.10;;;;;;6060888;23;85651;-92
2023/10/24 09:02:43;;;;;;;3.17;1.35;;;22.80;62.10;;;;;;6053827;23;85737;-92
2023/10/24 09:05:10;;;;;;;4.38;1.33;;;22.80;62.10;;;;;;6069219;23;90020;-91
2023/10/24 09:07:36;;;;;;;2.83;1.10;;;22.80;62.20;;;;;;6066602;23;89236;-92
2023/10/24 09:10:03;;;;;;;2.25;1.50;;;22.80;62.00;;;;;;6068535;23;86606;-94
2023/10/24 09:12:30;;;;;;;5.07;1.20;;;22.80;61.80;;;;;;6067981;23;85714;-93
2023/10/24 09:14:56;;;;;;;3.00;1.40;;;22.90;61.60;;;;;;6044911;23;86636;-94
2023/10/24 09:17:23;;;;;;;5.25;1.63;;;22.90;61.40;;;;;;6068585;23;86253;-93
2023/10/24 09:19:50;;;;;;;1.85;1.13;;;22.90;61.50;;;;;;6006766;23;86701;-93
2023/10/24 09:22:18;;;;;;;3.60;1.20;;;23.00;61.40;;;;;;6039669;23;86929;-91
2023/10/24 09:24:45;;;;;;;7.60;0.90;;;23.00;61.20;;;;;;6067706;23;89658;-92
2023/10/24 09:27:14;;;;;;;3.55;1.70;;;23.00;61.40;;;;;;6067755;23;86330;-92
2023/10/24 09:29:43;;;;;;;1.30;1.10;;;23.00;61.40;;;;;;6068144;23;85961;-94
2023/10/24 09:32:15;;;;;;;2.25;1.30;;;23.00;61.50;;;;;;6067109;23;85877;-92
2023/10/24 09:34:45;;;;;;;3.38;1.35;;;23.00;61.40;;;;;;6067483;23;86596;-91
2023/10/24 09:37:13;;;;;;;2.22;1.25;;;23.00;61.10;;;;;;6067992;23;86683;-92
2023/10/24 09:39:55;;;;;;;6.35;1.38;;;23.00;61.20;;;;;;6050469;23;86054;-91
2023/10/24 09:42:31;;;;;;;3.08;1.30;;;23.10;61.50;;;;;;6066519;23;86256;-91
2023/10/24 09:45:06;;;;;;;5.20;1.20;;;23.00;61.10;;;;;;6066920;23;90142;-94
2023/10/24 09:47:41;;;;;;;5.20;1.67;;;23.10;60.90;;;;;;6063985;23;86114;-91
2023/10/24 09:50:12;;;;;;;6.32;1.50;;;23.00;60.90;;;;;;6067333;23;90475;-92
2023/10/24 09:52:41;;;;;;;2.25;1.17;;;23.10;60.90;;;;;;6067891;23;86346;-94
2023/10/24 09:55:14;;;;;;;4.38;1.60;;;23.00;60.70;;;;;;6066907;23;86752;-94
2023/10/24 09:57:40;;;;;;;1.50;1.40;;;23.00;60.70;;;;;;6066680;23;87308;-94
2023/10/24 10:00:11;;;;;;;5.57;1.55;;;23.00;60.80;;;;;;6066824;23;86301;-90
2023/10/24 10:02:41;;;;;;;2.15;1.27;;;23.10;60.90;;;;;;6066546;23;85779;-93
2023/10/24 10:05:07;;;;;;;1.88;1.30;;;23.00;61.10;;;;;;6063114;23;94811;-89
2023/10/24 10:07:35;;;;;;;5.28;1.45;;;23.00;61.40;;;;;;6064232;23;88469;-92
2023/10/24 10:10:04;;;;;;;2.50;1.20;;;23.10;61.50;;;;;;6043706;23;86508;-94
2023/10/24 10:12:32;;;;;;;4.93;1.40;;;23.10;61.30;;;;;;6065669;23;86107;-95
2023/10/24 10:15:37;;;;;;;2.65;1.10;;;23.10;61.80;;;;;;6066776;23;88613;-92
2023/10/24 10:18:50;;;;;;;3.78;1.27;;;23.00;62.10;;;;;;6065030;23;85937;-92
2023/10/24 10:21:39;;;;;;;3.88;1.52;;;23.00;62.40;;;;;;6062441;23;85906;-93
2023/10/24 10:24:14;;;;;;;3.55;1.30;;;23.00;62.10;;;;;;6070240;23;86057;-92
2023/10/24 10:27:02;;;;;;;7.30;1.38;;;23.00;62.10;;;;;;6069390;23;87670;-90
2023/10/24 10:29:53;;;;;;;2.03;1.20;;;23.00;62.20;;;;;;6071916;23;87253;-92
2023/10/24 10:32:45;;;;;;;6.50;1.63;;;23.10;61.80;;;;;;6069848;23;87837;-93
2023/10/24 10:35:12;;;;;;;4.30;1.63;;;23.10;61.80;;;;;;6071155;23;86102;-95
2023/10/24 10:37:38;;;;;;;3.53;1.10;;;23.00;61.90;;;;;;6069750;23;89465;-94
2023/10/24 10:40:18;;;;;;;2.85;1.33;;;23.10;62.00;;;;;;6074458;23;88414;-92
2023/10/24 10:42:48;;;;;;;4.65;1.00;;;23.10;61.90;;;;;;6073519;23;86213;-93
2023/10/24 10:45:26;;;;;;;3.25;1.40;;;23.00;61.50;;;;;;6057406;23;86029;-90
2023/10/24 10:47:54;;;;;;;7.63;2.10;;;23.00;61.10;;;;;;6081237;23;87656;-91
2023/10/24 10:50:26;;;;;;;18.98;4.00;;;23.00;61.10;;;;;;6071971;23;87816;-95
2023/10/24 10:52:55;;;;;;;13.93;2.50;;;23.00;60.50;;;;;;6072121;23;87076;-95
2023/10/24 10:55:32;;;;;;;7.05;2.42;;;23.10;60.90;;;;;;6073363;23;86344;-94
2023/10/24 10:58:23;;;;;;;18.27;4.13;;;23.00;60.90;;;;;;6071159;23;90609;-93
2023/10/24 11:01:06;;;;;;;12.13;2.80;;;23.10;61.00;;;;;;6098390;23;87338;-92
2023/10/24 11:03:48;;;;;;;10.20;3.00;;;23.00;61.10;;;;;;6070643;23;85868;-92
2023/10/24 11:06:17;;;;;;;11.43;2.80;;;23.00;61.20;;;;;;6072709;23;86256;-92
2023/10/24 11:08:49;;;;;;;6.47;2.28;;;23.00;61.10;;;;;;6072939;23;86811;-93
2023/10/24 11:11:26;;;;;;;10.50;3.45;;;23.00;60.80;;;;;;6074365;23;86555;-93
2023/10/24 11:13:54;;;;;;;10.98;2.55;;;23.00;60.80;;;;;;6066408;23;85755;-93
2023/10/24 11:16:22;;;;;;;7.68;2.70;;;23.00;60.90;;;;;;6073374;23;85948;-92
2023/10/24 11:18:48;;;;;;;8.52;2.65;;;23.00;60.70;;;;;;6060358;23;87505;-93
2023/10/24 11:21:14;;;;;;;9.00;3.25;;;23.00;60.60;;;;;;6072953;23;89095;-91
2023/10/24 11:23:42;;;;;;;7.55;2.80;;;23.00;60.60;;;;;;6075832;23;85555;-92
2023/10/24 11:26:12;;;;;;;8.43;3.20;;;23.00;60.60;;;;;;6073752;23;85860;-91
2023/10/24 11:28:43;;;;;;;10.45;3.03;;;23.00;60.50;;;;;;6071113;23;87268;-92
2023/10/24 11:31:22;;;;;;;9.18;3.05;;;23.00;60.50;;;;;;6073436;23;86280;-94
2023/10/24 11:33:48;;;;;;;7.45;2.88;;;23.00;60.80;;;;;;6072867;23;87101;-93
2023/10/24 11:36:15;;;;;;;9.27;2.95;;;23.00;60.30;;;;;;6070210;23;85986;-89
2023/10/24 11:38:45;;;;;;;10.57;2.97;;;23.00;59.20;;;;;;6072384;23;89139;-93
2023/10/24 11:41:11;;;;;;;7.05;2.47;;;23.00;59.80;;;;;;6075125;23;87731;-94
2023/10/24 11:43:37;;;;;;;8.65;3.10;;;23.00;59.80;;;;;;6073728;23;85701;-94
2023/10/24 11:46:03;;;;;;;12.38;3.15;;;23.00;59.20;;;;;;6074717;23;85850;-94
2023/10/24 11:48:29;;;;;;;11.23;2.90;;;23.00;59.70;;;;;;6075365;23;87919;-96
2023/10/24 11:51:36;;;;;;;11.20;2.78;;;23.00;59.80;;;;;;6074860;23;87325;-95
2023/10/24 11:54:25;;;;;;;8.10;2.70;;;23.00;59.90;;;;;;6077090;23;85967;-95
2023/10/24 11:56:54;;;;;;;8.52;2.20;;;23.00;60.30;;;;;;6066065;23;85795;-95
2023/10/24 11:59:20;;;;;;;;;;;23.00;60.40;;;;;;6075754;23;89912;-95
2023/10/24 12:01:46;;;;;;;12.20;2.88;;;23.00;60.20;;;;;;6076963;23;88597;-94
2023/10/24 12:04:13;;;;;;;8.30;3.30;;;23.00;60.20;;;;;;6074192;23;86105;-94
2023/10/24 12:06:42;;;;;;;7.22;2.78;;;23.00;60.00;;;;;;6074332;23;85665;-93
2023/10/24 12:09:08;;;;;;;10.30;3.22;;;23.00;60.10;;;;;;6070412;23;88891;-91
2023/10/24 12:11:35;;;;;;;14.10;3.20;;;23.00;60.80;;;;;;6059561;23;86616;-92
2023/10/24 12:14:09;;;;;;;9.80;3.08;;;23.00;60.90;;;;;;6073399;23;86317;-94
2023/10/24 12:16:39;;;;;;;12.75;3.25;;;23.00;61.10;;;;;;6048897;23;86394;-93
2023/10/24 12:19:05;;;;;;;7.07;3.28;;;23.00;60.80;;;;;;6048549;23;89487;-92
2023/10/24 12:21:31;;;;;;;10.98;2.88;;;23.00;61.00;;;;;;6088201;23;86636;-94
2023/10/24 12:23:56;;;;;;;11.93;3.72;;;23.00;61.10;;;;;;6048349;23;86165;-92
2023/10/24 12:26:23;;;;;;;8.25;3.08;;;23.00;60.80;;;;;;6074775;23;85652;-94
2023/10/24 12:28:49;;;;;;;12.85;3.30;;;23.00;60.80;;;;;;6074445;23;89037;-95
2023/10/24 12:31:15;;;;;;;8.75;3.08;;;23.00;60.60;;;;;;6074320;23;87423;-94
2023/10/24 12:33:43;;;;;;;8.68;2.72;;;23.00;60.80;;;;;;6073619;23;86242;-95
2023/10/24 12:36:09;;;;;;;6.28;2.30;;;23.00;60.90;;;;;;6077377;23;85561;-92
2023/10/24 12:38:38;;;;;;;7.72;2.75;;;23.00;61.10;;;;;;6076823;23;89206;-94
2023/10/24 12:41:14;;;;;;;7.40;2.35;;;23.00;60.90;;;;;;6053629;23;86556;-93
2023/10/24 12:43:42;;;;;;;7.40;2.47;;;23.00;60.80;;;;;;6051689;23;86084;-91
2023/10/24 12:46:16;;;;;;;5.22;2.28;;;23.00;60.80;;;;;;6052840;23;86220;-92
2023/10/24 12:48:43;;;;;;;9.00;3.20;;;23.00;61.20;;;;;;6064866;23;86386;-94
2023/10/24 12:51:09;;;;;;;5.07;2.42;;;23.00;60.90;;;;;;6062990;23;88455;-95
2023/10/24 12:53:35;;;;;;;6.75;2.88;;;23.00;60.60;;;;;;6072432;23;86156;-93